Wenecja, Włochy

17:28 CET dnia 02-marzec-2015 (GMT +0100)
IVENEZIA10 | Change Station
CLOSE
Current Station
Stacja PWS
Location: Favaro Veneto, VENEZIA
n.p.m.: 18 ft
Najbliższa stacja pogodowa

Wysokość 18 ft 45.51 °N, 12.28 °E | Updated 2 minutes ago

Mostly Cloudy
przewaga chmur
50.1 ° F
Odczuwalna 50.1 ° F
Płn.
1.0
Wiatr zmienny Wiatr od północny
Gusts 2.0 mph

Dziś
Wysoka -- | Niska -- ° F
--% Prawdop. opadów
Wczoraj
Wysoka -- | Niska -- ° F
Precip. -- cali
6:48 AM 5:58 PM
Powiększający się Księżyc, 92% visible
Ciśnienie 29.77 cali
Widzialność 3.1 mil
chmury Niewiele 700 ft
przewaga chmur 1500 ft
Punkt rosy 47 ° F
Wilgotność 88%
Opady deszczu 0.02 cali
grubość pokrywy śnieżnej Niedostępne.
UV 0 z 12
Pyłki Niedostępne.
Jakość powietrza Niedostępne.
Flu Activity Niedostępne.
METAR LIPZ 021620Z 33006KT 5000 BR FEW007 BKN015 10/08 Q1008

More Conditions Fewer Conditions

Ciśnienie 29.77 cali
Widzialność 3.1 mil
chmury Niewiele 700 ft
przewaga chmur 1500 ft
Punkt rosy 47 ° F
Wilgotność 88%
Opady deszczu 0.02 cali
grubość pokrywy śnieżnej Niedostępne.
UV 0 z 12
Pyłki Niedostępne.
Jakość powietrza Niedostępne.
Flu Activity Niedostępne.
METAR LIPZ 021620Z 33006KT 5000 BR FEW007 BKN015 10/08 Q1008

More Conditions Fewer Conditions

10-Day Weather Forecast

Almanac

Astronomia

Mar. 02, 2015 Wschód Zachów
Aktualny czas
Zmierzch cywilny
Zmierzch żeglarski
świt/zmierzch astronomiczny
Księżyc
całkowite oświetlenie
Długość dnia
Tomorrow will be .
, % of the Moon is Illuminated

Dzisiejsze ekstrema

Country Highs Country Lows

Community

WunderPhotos

Upload Photos

1,801,838 zdjęcia zostały przesłane!

WunderBlogs® & News

Nearby

Jakość powietrza

  Jakość powietrza czynnik AQ Zanieczyszczenie
Not available.

Głębokość pokrywy śnieżnej

Station Depth n.p.m.

Aktywność sejsmiczna

Miejscowość Distance Mag. Time & Date
Minimum magnitude displayed is 2.5.

Temperatury wody na wybrzeżu

Miejsce Temperatura

Najbliższa stacja pogodowa